sensor_id;sensor_type;location;lat;lon;timestamp;P1;durP1;ratioP1;P2;durP2;ratioP2
69890;SDS011;57170;43.964;21.262;2023-04-01T00:00:48;25.63;;;18.80;;
69890;SDS011;57170;43.964;21.262;2023-04-01T00:03:14;34.20;;;23.48;;
69890;SDS011;57170;43.964;21.262;2023-04-01T00:05:41;35.67;;;24.85;;
69890;SDS011;57170;43.964;21.262;2023-04-01T00:08:08;31.35;;;23.73;;
69890;SDS011;57170;43.964;21.262;2023-04-01T00:10:34;31.85;;;21.08;;
69890;SDS011;57170;43.964;21.262;2023-04-01T00:13:00;25.17;;;18.63;;
69890;SDS011;57170;43.964;21.262;2023-04-01T00:15:26;29.35;;;20.02;;
69890;SDS011;57170;43.964;21.262;2023-04-01T00:17:52;37.30;;;24.92;;
69890;SDS011;57170;43.964;21.262;2023-04-01T00:20:19;29.92;;;20.75;;
69890;SDS011;57170;43.964;21.262;2023-04-01T00:22:45;28.52;;;18.88;;
69890;SDS011;57170;43.964;21.262;2023-04-01T00:25:11;29.40;;;20.35;;
69890;SDS011;57170;43.964;21.262;2023-04-01T00:27:38;28.23;;;19.27;;
69890;SDS011;57170;43.964;21.262;2023-04-01T00:30:04;26.48;;;16.25;;
69890;SDS011;57170;43.964;21.262;2023-04-01T00:32:33;32.45;;;20.85;;
69890;SDS011;57170;43.964;21.262;2023-04-01T00:34:59;36.40;;;27.35;;
69890;SDS011;57170;43.964;21.262;2023-04-01T00:37:25;42.10;;;28.67;;
69890;SDS011;57170;43.964;21.262;2023-04-01T00:39:52;31.73;;;23.58;;
69890;SDS011;57170;43.964;21.262;2023-04-01T00:42:18;36.08;;;26.08;;
69890;SDS011;57170;43.964;21.262;2023-04-01T00:44:54;50.15;;;37.50;;
69890;SDS011;57170;43.964;21.262;2023-04-01T00:47:21;53.70;;;39.88;;
69890;SDS011;57170;43.964;21.262;2023-04-01T00:49:48;55.55;;;40.70;;
69890;SDS011;57170;43.964;21.262;2023-04-01T00:52:17;55.97;;;37.83;;
69890;SDS011;57170;43.964;21.262;2023-04-01T00:54:44;54.50;;;37.00;;
69890;SDS011;57170;43.964;21.262;2023-04-01T00:57:12;46.20;;;34.25;;
69890;SDS011;57170;43.964;21.262;2023-04-01T00:59:40;42.55;;;30.88;;
69890;SDS011;57170;43.964;21.262;2023-04-01T01:02:08;42.45;;;27.38;;
69890;SDS011;57170;43.964;21.262;2023-04-01T01:04:36;41.67;;;28.40;;
69890;SDS011;57170;43.964;21.262;2023-04-01T01:09:43;36.35;;;26.80;;
69890;SDS011;57170;43.964;21.262;2023-04-01T01:12:13;40.00;;;27.42;;
69890;SDS011;57170;43.964;21.262;2023-04-01T01:14:53;42.17;;;28.17;;
69890;SDS011;57170;43.964;21.262;2023-04-01T01:17:42;38.13;;;29.23;;
69890;SDS011;57170;43.964;21.262;2023-04-01T01:28:33;34.10;;;22.23;;
69890;SDS011;57170;43.964;21.262;2023-04-01T01:36:25;27.83;;;17.90;;
69890;SDS011;57170;43.964;21.262;2023-04-01T01:38:52;34.92;;;21.42;;
69890;SDS011;57170;43.964;21.262;2023-04-01T01:41:18;34.70;;;22.83;;
69890;SDS011;57170;43.964;21.262;2023-04-01T01:43:47;27.80;;;21.20;;
69890;SDS011;57170;43.964;21.262;2023-04-01T01:46:16;33.40;;;20.75;;
69890;SDS011;57170;43.964;21.262;2023-04-01T01:48:43;23.17;;;17.55;;
69890;SDS011;57170;43.964;21.262;2023-04-01T01:51:10;27.00;;;17.27;;
69890;SDS011;57170;43.964;21.262;2023-04-01T01:53:36;29.65;;;19.90;;
69890;SDS011;57170;43.964;21.262;2023-04-01T01:56:02;24.67;;;18.88;;
69890;SDS011;57170;43.964;21.262;2023-04-01T01:58:33;29.63;;;21.17;;
69890;SDS011;57170;43.964;21.262;2023-04-01T02:01:06;34.55;;;20.63;;
69890;SDS011;57170;43.964;21.262;2023-04-01T02:03:33;22.27;;;15.32;;
69890;SDS011;57170;43.964;21.262;2023-04-01T02:06:00;18.55;;;12.73;;
69890;SDS011;57170;43.964;21.262;2023-04-01T02:08:34;12.80;;;8.98;;
69890;SDS011;57170;43.964;21.262;2023-04-01T02:11:02;14.07;;;10.50;;
69890;SDS011;57170;43.964;21.262;2023-04-01T02:16:05;14.75;;;9.80;;
69890;SDS011;57170;43.964;21.262;2023-04-01T02:18:33;13.65;;;7.78;;
69890;SDS011;57170;43.964;21.262;2023-04-01T02:21:00;11.63;;;5.70;;
69890;SDS011;57170;43.964;21.262;2023-04-01T02:23:27;11.48;;;5.25;;
69890;SDS011;57170;43.964;21.262;2023-04-01T02:25:54;9.48;;;4.63;;
69890;SDS011;57170;43.964;21.262;2023-04-01T02:28:20;9.43;;;5.32;;
69890;SDS011;57170;43.964;21.262;2023-04-01T02:30:48;9.52;;;4.22;;
69890;SDS011;57170;43.964;21.262;2023-04-01T02:33:15;8.13;;;4.60;;
69890;SDS011;57170;43.964;21.262;2023-04-01T02:35:42;9.38;;;4.47;;
69890;SDS011;57170;43.964;21.262;2023-04-01T02:38:09;12.27;;;3.85;;
69890;SDS011;57170;43.964;21.262;2023-04-01T02:40:42;12.10;;;5.22;;
69890;SDS011;57170;43.964;21.262;2023-04-01T02:43:08;6.55;;;3.70;;
69890;SDS011;57170;43.964;21.262;2023-04-01T02:45:34;8.63;;;3.83;;
69890;SDS011;57170;43.964;21.262;2023-04-01T02:48:00;8.20;;;3.75;;
69890;SDS011;57170;43.964;21.262;2023-04-01T02:50:26;9.77;;;4.03;;
69890;SDS011;57170;43.964;21.262;2023-04-01T02:52:52;7.35;;;4.05;;
69890;SDS011;57170;43.964;21.262;2023-04-01T02:55:18;16.02;;;5.00;;
69890;SDS011;57170;43.964;21.262;2023-04-01T02:57:45;11.40;;;6.40;;
69890;SDS011;57170;43.964;21.262;2023-04-01T03:00:11;14.45;;;7.07;;
69890;SDS011;57170;43.964;21.262;2023-04-01T03:02:38;10.60;;;6.72;;
69890;SDS011;57170;43.964;21.262;2023-04-01T03:05:04;13.40;;;6.65;;
69890;SDS011;57170;43.964;21.262;2023-04-01T03:07:31;9.80;;;5.75;;
69890;SDS011;57170;43.964;21.262;2023-04-01T03:09:57;9.88;;;6.60;;
69890;SDS011;57170;43.964;21.262;2023-04-01T03:12:23;13.93;;;6.63;;
69890;SDS011;57170;43.964;21.262;2023-04-01T03:14:49;10.23;;;4.10;;
69890;SDS011;57170;43.964;21.262;2023-04-01T03:17:15;7.28;;;3.97;;
69890;SDS011;57170;43.964;21.262;2023-04-01T03:19:41;7.32;;;3.47;;
69890;SDS011;57170;43.964;21.262;2023-04-01T03:22:08;8.55;;;3.55;;
69890;SDS011;57170;43.964;21.262;2023-04-01T03:24:35;7.68;;;5.03;;
69890;SDS011;57170;43.964;21.262;2023-04-01T03:27:01;9.68;;;4.30;;
69890;SDS011;57170;43.964;21.262;2023-04-01T03:29:27;8.23;;;4.13;;
69890;SDS011;57170;43.964;21.262;2023-04-01T03:31:54;20.55;;;4.30;;
69890;SDS011;57170;43.964;21.262;2023-04-01T03:34:22;9.05;;;3.78;;
69890;SDS011;57170;43.964;21.262;2023-04-01T03:36:48;6.57;;;3.45;;
69890;SDS011;57170;43.964;21.262;2023-04-01T03:39:16;9.18;;;3.92;;
69890;SDS011;57170;43.964;21.262;2023-04-01T03:41:45;7.55;;;3.47;;
69890;SDS011;57170;43.964;21.262;2023-04-01T03:44:11;9.55;;;4.05;;
69890;SDS011;57170;43.964;21.262;2023-04-01T03:46:37;10.48;;;4.18;;
69890;SDS011;57170;43.964;21.262;2023-04-01T03:49:06;8.70;;;4.55;;
69890;SDS011;57170;43.964;21.262;2023-04-01T03:51:36;21.52;;;9.95;;
69890;SDS011;57170;43.964;21.262;2023-04-01T03:54:02;18.65;;;13.57;;
69890;SDS011;57170;43.964;21.262;2023-04-01T03:56:28;17.88;;;11.05;;
69890;SDS011;57170;43.964;21.262;2023-04-01T03:58:54;30.92;;;19.10;;
69890;SDS011;57170;43.964;21.262;2023-04-01T04:01:21;30.45;;;19.40;;
69890;SDS011;57170;43.964;21.262;2023-04-01T04:03:48;32.13;;;18.42;;
69890;SDS011;57170;43.964;21.262;2023-04-01T04:06:14;16.67;;;11.20;;
69890;SDS011;57170;43.964;21.262;2023-04-01T04:08:41;18.95;;;11.02;;
69890;SDS011;57170;43.964;21.262;2023-04-01T04:11:07;20.63;;;12.77;;
69890;SDS011;57170;43.964;21.262;2023-04-01T04:13:33;18.55;;;12.93;;
69890;SDS011;57170;43.964;21.262;2023-04-01T04:16:01;19.50;;;13.38;;
69890;SDS011;57170;43.964;21.262;2023-04-01T04:18:27;22.52;;;12.50;;
69890;SDS011;57170;43.964;21.262;2023-04-01T04:20:53;21.30;;;13.07;;
69890;SDS011;57170;43.964;21.262;2023-04-01T04:23:19;27.48;;;16.88;;
69890;SDS011;57170;43.964;21.262;2023-04-01T04:25:59;25.88;;;16.00;;
69890;SDS011;57170;43.964;21.262;2023-04-01T04:28:25;21.77;;;12.60;;
69890;SDS011;57170;43.964;21.262;2023-04-01T04:30:52;18.42;;;10.93;;
69890;SDS011;57170;43.964;21.262;2023-04-01T04:33:18;23.25;;;11.30;;
69890;SDS011;57170;43.964;21.262;2023-04-01T04:35:44;21.23;;;12.15;;
69890;SDS011;57170;43.964;21.262;2023-04-01T04:38:10;20.00;;;13.25;;
69890;SDS011;57170;43.964;21.262;2023-04-01T04:40:37;18.63;;;11.25;;
69890;SDS011;57170;43.964;21.262;2023-04-01T04:43:03;13.02;;;8.15;;
69890;SDS011;57170;43.964;21.262;2023-04-01T04:45:29;12.82;;;9.07;;
69890;SDS011;57170;43.964;21.262;2023-04-01T04:47:56;19.42;;;8.23;;
69890;SDS011;57170;43.964;21.262;2023-04-01T04:50:22;17.48;;;8.77;;
69890;SDS011;57170;43.964;21.262;2023-04-01T04:52:49;11.13;;;8.43;;
69890;SDS011;57170;43.964;21.262;2023-04-01T04:55:15;13.73;;;9.13;;
69890;SDS011;57170;43.964;21.262;2023-04-01T04:57:41;15.52;;;10.02;;
69890;SDS011;57170;43.964;21.262;2023-04-01T05:00:07;16.80;;;9.70;;
69890;SDS011;57170;43.964;21.262;2023-04-01T05:02:35;15.75;;;9.73;;
69890;SDS011;57170;43.964;21.262;2023-04-01T05:05:01;14.55;;;10.40;;
69890;SDS011;57170;43.964;21.262;2023-04-01T05:07:27;16.42;;;11.10;;
69890;SDS011;57170;43.964;21.262;2023-04-01T05:09:53;16.90;;;11.93;;
69890;SDS011;57170;43.964;21.262;2023-04-01T05:12:19;19.35;;;13.38;;
69890;SDS011;57170;43.964;21.262;2023-04-01T05:14:45;19.35;;;10.15;;
69890;SDS011;57170;43.964;21.262;2023-04-01T05:17:11;15.85;;;10.55;;
69890;SDS011;57170;43.964;21.262;2023-04-01T05:19:38;21.70;;;12.35;;
69890;SDS011;57170;43.964;21.262;2023-04-01T05:22:04;16.27;;;11.68;;
69890;SDS011;57170;43.964;21.262;2023-04-01T05:24:30;29.17;;;16.75;;
69890;SDS011;57170;43.964;21.262;2023-04-01T05:26:57;104.97;;;55.45;;
69890;SDS011;57170;43.964;21.262;2023-04-01T05:29:24;91.07;;;44.47;;
69890;SDS011;57170;43.964;21.262;2023-04-01T05:31:50;50.75;;;26.95;;
69890;SDS011;57170;43.964;21.262;2023-04-01T05:34:17;40.70;;;20.45;;
69890;SDS011;57170;43.964;21.262;2023-04-01T05:36:43;21.60;;;14.88;;
69890;SDS011;57170;43.964;21.262;2023-04-01T05:39:09;22.80;;;15.93;;
69890;SDS011;57170;43.964;21.262;2023-04-01T05:41:36;24.85;;;14.10;;
69890;SDS011;57170;43.964;21.262;2023-04-01T05:44:02;22.58;;;14.43;;
69890;SDS011;57170;43.964;21.262;2023-04-01T05:46:28;23.50;;;9.63;;
69890;SDS011;57170;43.964;21.262;2023-04-01T05:48:54;15.73;;;8.80;;
69890;SDS011;57170;43.964;21.262;2023-04-01T05:51:20;18.23;;;9.25;;
69890;SDS011;57170;43.964;21.262;2023-04-01T05:53:47;25.10;;;8.23;;
69890;SDS011;57170;43.964;21.262;2023-04-01T05:56:13;19.17;;;9.98;;
69890;SDS011;57170;43.964;21.262;2023-04-01T05:58:39;20.75;;;14.20;;
69890;SDS011;57170;43.964;21.262;2023-04-01T06:01:06;26.55;;;11.32;;
69890;SDS011;57170;43.964;21.262;2023-04-01T06:03:33;20.40;;;10.23;;
69890;SDS011;57170;43.964;21.262;2023-04-01T06:05:59;19.45;;;10.55;;
69890;SDS011;57170;43.964;21.262;2023-04-01T06:08:26;19.27;;;14.75;;
69890;SDS011;57170;43.964;21.262;2023-04-01T06:15:58;21.80;;;12.50;;
69890;SDS011;57170;43.964;21.262;2023-04-01T06:36:38;21.25;;;10.65;;
69890;SDS011;57170;43.964;21.262;2023-04-01T06:39:15;17.95;;;9.18;;
69890;SDS011;57170;43.964;21.262;2023-04-01T06:52:19;14.13;;;7.85;;
69890;SDS011;57170;43.964;21.262;2023-04-01T06:54:58;15.25;;;8.82;;
69890;SDS011;57170;43.964;21.262;2023-04-01T06:59:53;17.88;;;9.27;;
69890;SDS011;57170;43.964;21.262;2023-04-01T07:04:58;14.48;;;7.85;;
69890;SDS011;57170;43.964;21.262;2023-04-01T07:11:30;13.27;;;7.22;;
69890;SDS011;57170;43.964;21.262;2023-04-01T07:13:34;16.55;;;7.35;;
69890;SDS011;57170;43.964;21.262;2023-04-01T07:16:21;14.52;;;7.82;;
69890;SDS011;57170;43.964;21.262;2023-04-01T07:18:51;14.50;;;9.00;;
69890;SDS011;57170;43.964;21.262;2023-04-01T07:21:26;18.23;;;8.13;;
69890;SDS011;57170;43.964;21.262;2023-04-01T07:23:54;20.52;;;7.85;;
69890;SDS011;57170;43.964;21.262;2023-04-01T07:26:23;19.17;;;9.20;;
69890;SDS011;57170;43.964;21.262;2023-04-01T07:28:53;20.15;;;9.63;;
69890;SDS011;57170;43.964;21.262;2023-04-01T07:31:22;20.60;;;10.13;;
69890;SDS011;57170;43.964;21.262;2023-04-01T07:34:09;22.08;;;10.50;;
69890;SDS011;57170;43.964;21.262;2023-04-01T07:36:39;21.13;;;11.80;;
69890;SDS011;57170;43.964;21.262;2023-04-01T07:41:40;26.33;;;11.75;;
69890;SDS011;57170;43.964;21.262;2023-04-01T07:51:45;19.00;;;9.77;;
69890;SDS011;57170;43.964;21.262;2023-04-01T07:54:26;24.05;;;14.10;;
69890;SDS011;57170;43.964;21.262;2023-04-01T07:57:43;27.48;;;11.38;;
69890;SDS011;57170;43.964;21.262;2023-04-01T08:09:47;17.58;;;10.80;;
69890;SDS011;57170;43.964;21.262;2023-04-01T08:12:38;18.90;;;12.77;;
69890;SDS011;57170;43.964;21.262;2023-04-01T08:15:41;14.30;;;9.13;;
69890;SDS011;57170;43.964;21.262;2023-04-01T08:20:32;15.88;;;8.25;;
69890;SDS011;57170;43.964;21.262;2023-04-01T08:23:03;13.20;;;8.35;;
69890;SDS011;57170;43.964;21.262;2023-04-01T08:25:33;17.80;;;8.43;;
69890;SDS011;57170;43.964;21.262;2023-04-01T08:28:02;13.05;;;6.38;;
69890;SDS011;57170;43.964;21.262;2023-04-01T08:32:57;9.98;;;5.55;;
69890;SDS011;57170;43.964;21.262;2023-04-01T08:35:30;12.20;;;5.65;;
69890;SDS011;57170;43.964;21.262;2023-04-01T08:37:59;10.43;;;6.07;;
69890;SDS011;57170;43.964;21.262;2023-04-01T08:46:17;13.00;;;5.68;;
69890;SDS011;57170;43.964;21.262;2023-04-01T08:49:28;7.88;;;4.63;;
69890;SDS011;57170;43.964;21.262;2023-04-01T09:07:45;11.75;;;7.00;;
69890;SDS011;57170;43.964;21.262;2023-04-01T09:10:18;11.35;;;7.80;;
69890;SDS011;57170;43.964;21.262;2023-04-01T09:12:51;13.88;;;7.43;;
69890;SDS011;57170;43.964;21.262;2023-04-01T09:15:22;13.43;;;6.10;;
69890;SDS011;57170;43.964;21.262;2023-04-01T09:27:43;10.35;;;5.32;;
69890;SDS011;57170;43.964;21.262;2023-04-01T09:35:25;11.05;;;6.18;;
69890;SDS011;57170;43.964;21.262;2023-04-01T09:43:16;14.88;;;5.85;;
69890;SDS011;57170;43.964;21.262;2023-04-01T09:50:52;17.43;;;10.63;;
69890;SDS011;57170;43.964;21.262;2023-04-01T09:53:28;14.20;;;7.88;;
69890;SDS011;57170;43.964;21.262;2023-04-01T09:58:56;16.05;;;9.10;;
69890;SDS011;57170;43.964;21.262;2023-04-01T10:09:21;14.18;;;7.45;;
69890;SDS011;57170;43.964;21.262;2023-04-01T10:12:11;12.90;;;6.65;;
69890;SDS011;57170;43.964;21.262;2023-04-01T10:22:37;20.25;;;11.00;;
69890;SDS011;57170;43.964;21.262;2023-04-01T11:15:35;4.75;;;2.45;;
69890;SDS011;57170;43.964;21.262;2023-04-01T11:25:52;7.28;;;5.78;;
69890;SDS011;57170;43.964;21.262;2023-04-01T11:46:29;5.80;;;4.00;;
69890;SDS011;57170;43.964;21.262;2023-04-01T11:56:43;10.07;;;6.65;;
69890;SDS011;57170;43.964;21.262;2023-04-01T12:07:11;8.07;;;6.47;;
69890;SDS011;57170;43.964;21.262;2023-04-01T12:09:56;11.80;;;7.43;;
69890;SDS011;57170;43.964;21.262;2023-04-01T12:12:39;9.85;;;7.10;;
69890;SDS011;57170;43.964;21.262;2023-04-01T12:15:20;9.60;;;6.25;;
69890;SDS011;57170;43.964;21.262;2023-04-01T12:23:06;17.73;;;15.73;;
69890;SDS011;57170;43.964;21.262;2023-04-01T12:28:25;8.55;;;7.30;;
69890;SDS011;57170;43.964;21.262;2023-04-01T12:46:23;12.23;;;10.40;;
69890;SDS011;57170;43.964;21.262;2023-04-01T13:04:49;10.70;;;6.43;;
69890;SDS011;57170;43.964;21.262;2023-04-01T13:07:28;4.97;;;4.00;;
69890;SDS011;57170;43.964;21.262;2023-04-01T13:20:23;7.00;;;5.32;;
69890;SDS011;57170;43.964;21.262;2023-04-01T13:27:56;7.95;;;4.72;;
69890;SDS011;57170;43.964;21.262;2023-04-01T13:30:25;6.85;;;4.78;;
69890;SDS011;57170;43.964;21.262;2023-04-01T13:32:59;6.38;;;3.50;;
69890;SDS011;57170;43.964;21.262;2023-04-01T13:35:35;5.28;;;3.40;;
69890;SDS011;57170;43.964;21.262;2023-04-01T13:38:24;7.68;;;3.95;;
69890;SDS011;57170;43.964;21.262;2023-04-01T13:43:24;6.60;;;3.50;;
69890;SDS011;57170;43.964;21.262;2023-04-01T13:48:52;6.57;;;3.85;;
69890;SDS011;57170;43.964;21.262;2023-04-01T13:59:10;9.90;;;5.53;;
69890;SDS011;57170;43.964;21.262;2023-04-01T14:09:25;6.78;;;4.38;;
69890;SDS011;57170;43.964;21.262;2023-04-01T14:12:00;5.85;;;3.78;;
69890;SDS011;57170;43.964;21.262;2023-04-01T14:14:32;4.97;;;3.35;;
69890;SDS011;57170;43.964;21.262;2023-04-01T14:37:55;5.93;;;2.95;;
69890;SDS011;57170;43.964;21.262;2023-04-01T14:45:40;7.90;;;5.13;;
69890;SDS011;57170;43.964;21.262;2023-04-01T14:50:57;5.50;;;4.63;;
69890;SDS011;57170;43.964;21.262;2023-04-01T14:55:50;5.53;;;3.55;;
69890;SDS011;57170;43.964;21.262;2023-04-01T14:58:18;6.35;;;3.95;;
69890;SDS011;57170;43.964;21.262;2023-04-01T15:14:26;6.63;;;4.25;;
69890;SDS011;57170;43.964;21.262;2023-04-01T15:17:01;5.88;;;3.63;;
69890;SDS011;57170;43.964;21.262;2023-04-01T15:19:38;6.38;;;5.25;;
69890;SDS011;57170;43.964;21.262;2023-04-01T15:22:26;9.32;;;5.90;;
69890;SDS011;57170;43.964;21.262;2023-04-01T15:25:18;9.32;;;6.25;;
69890;SDS011;57170;43.964;21.262;2023-04-01T15:28:04;4.93;;;3.08;;
69890;SDS011;57170;43.964;21.262;2023-04-01T15:30:39;10.10;;;4.40;;
69890;SDS011;57170;43.964;21.262;2023-04-01T15:35:45;8.23;;;4.88;;
69890;SDS011;57170;43.964;21.262;2023-04-01T15:38:22;8.40;;;5.65;;
69890;SDS011;57170;43.964;21.262;2023-04-01T15:58:59;5.45;;;3.90;;
69890;SDS011;57170;43.964;21.262;2023-04-01T16:01:32;5.72;;;3.88;;
69890;SDS011;57170;43.964;21.262;2023-04-01T16:04:24;4.38;;;2.70;;
69890;SDS011;57170;43.964;21.262;2023-04-01T16:06:59;4.65;;;3.75;;
69890;SDS011;57170;43.964;21.262;2023-04-01T16:14:39;6.32;;;4.57;;
69890;SDS011;57170;43.964;21.262;2023-04-01T16:17:29;6.50;;;4.07;;
69890;SDS011;57170;43.964;21.262;2023-04-01T16:22:58;9.48;;;6.28;;
69890;SDS011;57170;43.964;21.262;2023-04-01T16:33:22;9.80;;;5.97;;
69890;SDS011;57170;43.964;21.262;2023-04-01T16:35:59;7.22;;;6.07;;
69890;SDS011;57170;43.964;21.262;2023-04-01T16:43:26;19.35;;;12.30;;
69890;SDS011;57170;43.964;21.262;2023-04-01T16:48:35;15.70;;;10.38;;
69890;SDS011;57170;43.964;21.262;2023-04-01T16:51:11;11.68;;;10.48;;
69890;SDS011;57170;43.964;21.262;2023-04-01T16:54:13;12.25;;;8.27;;
69890;SDS011;57170;43.964;21.262;2023-04-01T16:56:39;12.07;;;8.77;;
69890;SDS011;57170;43.964;21.262;2023-04-01T16:59:33;11.52;;;9.23;;
69890;SDS011;57170;43.964;21.262;2023-04-01T17:04:26;15.35;;;11.23;;
69890;SDS011;57170;43.964;21.262;2023-04-01T17:13:26;25.38;;;21.27;;
69890;SDS011;57170;43.964;21.262;2023-04-01T17:15:22;34.70;;;29.88;;
69890;SDS011;57170;43.964;21.262;2023-04-01T17:22:54;28.50;;;21.10;;
69890;SDS011;57170;43.964;21.262;2023-04-01T17:27:51;20.45;;;17.65;;
69890;SDS011;57170;43.964;21.262;2023-04-01T17:35:32;26.52;;;19.27;;
69890;SDS011;57170;43.964;21.262;2023-04-01T17:40:38;75.63;;;60.33;;
69890;SDS011;57170;43.964;21.262;2023-04-01T17:43:20;63.20;;;56.13;;
69890;SDS011;57170;43.964;21.262;2023-04-01T17:45:57;60.08;;;52.72;;
69890;SDS011;57170;43.964;21.262;2023-04-01T17:48:41;45.88;;;40.90;;
69890;SDS011;57170;43.964;21.262;2023-04-01T18:01:53;56.58;;;50.65;;
69890;SDS011;57170;43.964;21.262;2023-04-01T18:12:39;25.98;;;18.90;;
69890;SDS011;57170;43.964;21.262;2023-04-01T18:15:28;25.60;;;20.92;;
69890;SDS011;57170;43.964;21.262;2023-04-01T18:20:50;50.25;;;39.83;;
69890;SDS011;57170;43.964;21.262;2023-04-01T18:26:11;23.27;;;19.63;;
69890;SDS011;57170;43.964;21.262;2023-04-01T18:28:41;21.48;;;16.55;;
69890;SDS011;57170;43.964;21.262;2023-04-01T18:31:15;17.50;;;14.52;;
69890;SDS011;57170;43.964;21.262;2023-04-01T18:44:27;14.95;;;10.15;;
69890;SDS011;57170;43.964;21.262;2023-04-01T18:59:40;18.38;;;14.05;;
69890;SDS011;57170;43.964;21.262;2023-04-01T19:02:14;22.20;;;16.63;;
69890;SDS011;57170;43.964;21.262;2023-04-01T19:09:46;17.98;;;13.90;;
69890;SDS011;57170;43.964;21.262;2023-04-01T19:19:57;12.23;;;9.63;;
69890;SDS011;57170;43.964;21.262;2023-04-01T19:27:42;9.50;;;8.00;;
69890;SDS011;57170;43.964;21.262;2023-04-01T19:38:32;7.65;;;4.90;;
69890;SDS011;57170;43.964;21.262;2023-04-01T19:40:35;7.38;;;4.95;;
69890;SDS011;57170;43.964;21.262;2023-04-01T19:43:07;12.32;;;7.90;;
69890;SDS011;57170;43.964;21.262;2023-04-01T19:50:53;15.65;;;12.50;;
69890;SDS011;57170;43.964;21.262;2023-04-01T19:53:25;16.80;;;11.75;;
69890;SDS011;57170;43.964;21.262;2023-04-01T19:58:30;17.92;;;13.32;;
69890;SDS011;57170;43.964;21.262;2023-04-01T20:00:59;18.75;;;13.95;;
69890;SDS011;57170;43.964;21.262;2023-04-01T20:16:04;22.83;;;18.75;;
69890;SDS011;57170;43.964;21.262;2023-04-01T20:20:59;28.05;;;21.50;;
69890;SDS011;57170;43.964;21.262;2023-04-01T20:26:10;63.83;;;44.25;;
69890;SDS011;57170;43.964;21.262;2023-04-01T20:28:44;39.72;;;29.27;;
69890;SDS011;57170;43.964;21.262;2023-04-01T20:31:27;31.17;;;24.35;;
69890;SDS011;57170;43.964;21.262;2023-04-01T20:34:00;24.05;;;18.55;;
69890;SDS011;57170;43.964;21.262;2023-04-01T20:44:10;21.63;;;13.52;;
69890;SDS011;57170;43.964;21.262;2023-04-01T20:54:29;15.50;;;12.68;;
69890;SDS011;57170;43.964;21.262;2023-04-01T20:57:06;19.02;;;12.63;;
69890;SDS011;57170;43.964;21.262;2023-04-01T21:07:37;14.82;;;11.27;;
69890;SDS011;57170;43.964;21.262;2023-04-01T21:15:22;19.38;;;13.32;;
69890;SDS011;57170;43.964;21.262;2023-04-01T21:18:00;15.43;;;11.82;;
69890;SDS011;57170;43.964;21.262;2023-04-01T21:20:32;14.68;;;10.65;;
69890;SDS011;57170;43.964;21.262;2023-04-01T21:25:44;13.88;;;10.10;;
69890;SDS011;57170;43.964;21.262;2023-04-01T21:31:08;12.60;;;8.73;;
69890;SDS011;57170;43.964;21.262;2023-04-01T21:41:18;11.80;;;7.22;;
69890;SDS011;57170;43.964;21.262;2023-04-01T21:51:50;19.50;;;12.90;;
69890;SDS011;57170;43.964;21.262;2023-04-01T22:04:52;60.50;;;45.50;;
69890;SDS011;57170;43.964;21.262;2023-04-01T22:09:57;27.13;;;19.55;;
69890;SDS011;57170;43.964;21.262;2023-04-01T22:18:11;22.88;;;16.80;;
69890;SDS011;57170;43.964;21.262;2023-04-01T22:28:29;25.42;;;16.50;;
69890;SDS011;57170;43.964;21.262;2023-04-01T22:31:02;30.77;;;18.23;;
69890;SDS011;57170;43.964;21.262;2023-04-01T22:36:01;27.65;;;16.52;;
69890;SDS011;57170;43.964;21.262;2023-04-01T22:43:45;20.73;;;12.82;;
69890;SDS011;57170;43.964;21.262;2023-04-01T22:49:03;17.98;;;13.10;;
69890;SDS011;57170;43.964;21.262;2023-04-01T22:51:39;18.90;;;12.67;;
69890;SDS011;57170;43.964;21.262;2023-04-01T22:56:37;19.60;;;12.13;;
69890;SDS011;57170;43.964;21.262;2023-04-01T22:59:15;14.25;;;11.98;;
69890;SDS011;57170;43.964;21.262;2023-04-01T23:01:44;18.77;;;12.13;;
69890;SDS011;57170;43.964;21.262;2023-04-01T23:04:12;18.38;;;11.77;;
69890;SDS011;57170;43.964;21.262;2023-04-01T23:06:43;19.90;;;11.90;;
69890;SDS011;57170;43.964;21.262;2023-04-01T23:09:19;16.42;;;12.75;;
69890;SDS011;57170;43.964;21.262;2023-04-01T23:11:48;17.95;;;12.40;;
69890;SDS011;57170;43.964;21.262;2023-04-01T23:16:48;19.58;;;14.73;;
69890;SDS011;57170;43.964;21.262;2023-04-01T23:19:25;19.92;;;16.33;;
69890;SDS011;57170;43.964;21.262;2023-04-01T23:24:46;17.95;;;12.57;;
69890;SDS011;57170;43.964;21.262;2023-04-01T23:29:51;17.85;;;13.30;;
69890;SDS011;57170;43.964;21.262;2023-04-01T23:32:23;17.75;;;12.25;;
69890;SDS011;57170;43.964;21.262;2023-04-01T23:34:58;18.60;;;13.20;;
69890;SDS011;57170;43.964;21.262;2023-04-01T23:37:25;19.48;;;12.40;;
69890;SDS011;57170;43.964;21.262;2023-04-01T23:39:52;15.88;;;12.48;;
69890;SDS011;57170;43.964;21.262;2023-04-01T23:44:48;16.50;;;11.98;;
69890;SDS011;57170;43.964;21.262;2023-04-01T23:47:18;15.52;;;11.73;;
69890;SDS011;57170;43.964;21.262;2023-04-01T23:49:47;22.52;;;16.73;;
69890;SDS011;57170;43.964;21.262;2023-04-01T23:52:24;28.67;;;18.00;;
69890;SDS011;57170;43.964;21.262;2023-04-01T23:55:08;36.15;;;26.58;;
69890;SDS011;57170;43.964;21.262;2023-04-01T23:57:35;21.33;;;14.35;;
